Time;durP1;ratioP1;P1;durP2;ratioP2;P2;SDS_P1;SDS_P2;PMS_P1;PMS_P2;Temp;Humidity;BMP_temperature;BMP_pressure;BME280_temperature;BME280_humidity;BME280_pressure;Samples;Min_cycle;Max_cycle;Signal;HPM_P1;HPM_P2
2021/12/02 00:01:52;;;;;;;10.60;7.70;;;;;;;0.84;78.28;97288.44;102137;1314;75377;-23
2021/12/02 00:04:20;;;;;;;9.60;6.30;;;;;;;0.78;78.42;97284.46;102099;1314;76245;-23
2021/12/02 00:06:48;;;;;;;8.50;5.80;;;;;;;0.56;79.13;97287.13;102262;1313;74582;-23
2021/12/02 00:09:17;;;;;;;6.90;3.70;;;;;;;0.52;79.63;97282.48;102216;1314;62031;-23
2021/12/02 00:11:45;;;;;;;10.20;6.00;;;;;;;0.88;78.32;97274.68;102117;1314;61188;-23
2021/12/02 00:14:15;;;;;;;9.70;5.10;;;;;;;0.93;77.51;97271.24;101775;1317;75457;-23
2021/12/02 00:17:05;;;;;;;8.30;4.30;;;;;;;0.72;78.16;97261.96;102027;1316;75808;-23
2021/12/02 00:22:24;;;;;;;5.80;4.50;;;;;;;0.77;78.42;97264.71;102218;1313;61593;-23
2021/12/02 00:24:56;;;;;;;21.20;5.90;;;;;;;0.94;77.11;97265.92;102219;1314;61318;-23
2021/12/02 00:27:24;;;;;;;5.70;3.20;;;;;;;0.73;77.59;97268.05;101792;1320;74823;-23
2021/12/02 00:29:55;;;;;;;10.60;6.00;;;;;;;0.51;78.14;97269.19;102006;1314;76184;-23
2021/12/02 00:32:29;;;;;;;9.50;6.30;;;;;;;0.61;77.97;97262.55;101759;1317;73499;-23
2021/12/02 00:34:57;;;;;;;6.30;3.30;;;;;;;0.96;76.48;97262.84;101941;1316;61947;-23
2021/12/02 00:37:27;;;;;;;9.60;5.10;;;;;;;0.94;76.11;97262.48;102169;1317;61206;-23
2021/12/02 00:39:55;;;;;;;6.70;4.20;;;;;;;0.79;76.34;97257.87;101937;1313;75334;-23
2021/12/02 00:42:25;;;;;;;10.10;4.20;;;;;;;0.57;77.15;97256.20;102022;1314;76066;-23
2021/12/02 00:44:53;;;;;;;7.80;4.40;;;;;;;0.67;77.04;97253.27;102085;1314;74213;-23
2021/12/02 00:47:21;;;;;;;5.50;4.20;;;;;;;1.04;75.52;97246.79;102032;1313;61888;-23
2021/12/02 00:49:50;;;;;;;5.60;4.20;;;;;;;1.13;74.56;97249.04;101747;1320;61177;-23
2021/12/02 00:52:18;;;;;;;8.00;5.10;;;;;;;0.99;74.48;97237.15;101837;1314;74677;-23
2021/12/02 00:54:47;;;;;;;6.50;4.50;;;;;;;0.76;75.45;97239.46;101623;1314;75092;-24
2021/12/02 00:57:15;;;;;;;7.30;5.40;;;;;;;0.61;76.39;97229.58;102123;1313;74478;-23
2021/12/02 00:59:44;;;;;;;6.00;4.00;;;;;;;1.06;74.76;97227.11;101879;1313;61153;-23
2021/12/02 01:02:12;;;;;;;6.60;4.90;;;;;;;1.19;73.90;97231.88;102160;1314;62029;-23
2021/12/02 01:04:41;;;;;;;8.90;5.40;;;;;;;1.09;73.97;97228.79;101926;1313;75627;-23
2021/12/02 01:07:10;;;;;;;12.70;5.20;;;;;;;0.84;74.27;97234.14;102280;1313;76309;-23
2021/12/02 01:09:38;;;;;;;7.70;3.90;;;;;;;0.62;75.38;97232.23;102133;1316;73379;-23
2021/12/02 01:12:07;;;;;;;10.70;7.20;;;;;;;0.92;75.09;97229.85;102308;1313;61108;-23
2021/12/02 01:14:35;;;;;;;6.00;4.00;;;;;;;1.01;73.89;97218.73;102146;1316;62104;-23
2021/12/02 01:17:03;;;;;;;7.10;5.10;;;;;;;0.97;73.97;97215.78;101905;1316;75434;-23
2021/12/02 01:19:32;;;;;;;8.00;4.50;;;;;;;0.83;74.38;97217.80;102297;1313;75345;-23
2021/12/02 01:22:01;;;;;;;7.80;5.30;;;;;;;0.62;75.40;97219.23;102296;1313;72990;-23
2021/12/02 01:24:30;;;;;;;8.60;5.20;;;;;;;1.03;74.41;97214.88;102331;1313;61666;-23
2021/12/02 01:26:58;;;;;;;6.50;4.20;;;;;;;1.26;72.98;97206.73;101926;1316;61163;-23
2021/12/02 01:29:26;;;;;;;8.40;5.00;;;;;;;1.20;73.14;97204.96;102162;1320;74405;-23
2021/12/02 01:32:04;;;;;;;5.90;4.20;;;;;;;1.04;73.43;97191.20;102315;1313;76074;-24
2021/12/02 01:34:33;;;;;;;5.40;3.50;;;;;;;0.85;74.09;97180.62;102250;1313;74435;-24
2021/12/02 01:37:01;;;;;;;8.10;5.50;;;;;;;0.91;74.54;97182.57;101741;1313;62767;-24
2021/12/02 01:39:30;;;;;;;6.70;3.30;;;;;;;1.38;72.80;97171.65;102146;1313;62162;-23
2021/12/02 01:41:59;;;;;;;7.80;4.80;;;;;;;1.49;72.11;97162.67;102143;1314;73646;-24
2021/12/02 01:44:28;;;;;;;8.00;4.10;;;;;;;1.25;72.29;97170.20;102146;1313;76108;-23
2021/12/02 01:46:58;;;;;;;7.10;4.30;;;;;;;1.07;72.77;97168.92;102028;1316;73413;-24
2021/12/02 01:49:30;;;;;;;4.60;3.10;;;;;;;0.87;73.58;97173.30;101813;1316;61147;-23
2021/12/02 01:51:58;;;;;;;6.10;4.00;;;;;;;1.01;73.56;97167.16;102174;1313;61191;-24
2021/12/02 01:54:28;;;;;;;4.90;2.60;;;;;;;1.60;71.59;97165.90;102300;1313;75546;-23
2021/12/02 01:57:09;;;;;;;10.50;4.00;;;;;;;1.68;70.81;97163.11;102258;1316;75704;-24
2021/12/02 01:59:38;;;;;;;5.30;3.70;;;;;;;1.47;71.19;97158.31;101956;1316;74454;-23
2021/12/02 02:02:09;;;;;;;9.90;6.50;;;;;;;1.26;71.44;97166.52;102300;1313;61205;-23
2021/12/02 02:04:38;;;;;;;5.20;3.60;;;;;;;0.94;72.08;97167.80;102119;1319;61214;-23
2021/12/02 02:07:10;;;;;;;7.90;4.30;;;;;;;0.88;72.79;97170.96;101821;1314;75484;-23
2021/12/02 02:09:38;;;;;;;6.60;2.40;;;;;;;1.39;71.57;97163.21;101770;1317;75349;-24
2021/12/02 02:12:09;;;;;;;8.30;5.70;;;;;;;1.54;70.73;97165.55;101989;1313;73436;-24
2021/12/02 02:14:39;;;;;;;8.00;5.50;;;;;;;1.43;70.84;97168.70;101658;1316;61295;-23
2021/12/02 02:17:25;;;;;;;5.70;2.80;;;;;;;1.26;70.67;97165.00;101775;1313;62392;-24
2021/12/02 02:19:54;;;;;;;4.30;3.10;;;;;;;1.05;71.78;97161.41;102172;1313;75583;-24
2021/12/02 02:22:24;;;;;;;5.60;4.10;;;;;;;0.87;72.77;97156.88;102169;1313;74627;-24
2021/12/02 02:24:53;;;;;;;7.60;4.10;;;;;;;1.29;71.67;97164.66;102314;1314;74053;-24
2021/12/02 02:27:21;;;;;;;4.40;2.60;;;;;;;1.70;70.42;97162.64;102111;1313;61317;-24
2021/12/02 02:29:50;;;;;;;3.80;2.60;;;;;;;1.65;69.98;97168.83;102125;1316;61192;-24
2021/12/02 02:32:24;;;;;;;3.90;2.90;;;;;;;1.40;70.47;97163.16;102248;1313;75754;-23
2021/12/02 02:34:52;;;;;;;7.40;3.80;;;;;;;1.21;71.05;97157.84;101898;1316;76082;-24
2021/12/02 02:37:21;;;;;;;4.80;3.50;;;;;;;1.02;71.78;97147.91;101905;1314;508886;-23
2021/12/02 02:39:49;;;;;;;3.30;2.60;;;;;;;0.99;72.46;97148.34;102255;1313;62738;-23
2021/12/02 02:42:23;;;;;;;5.90;3.20;;;;;;;1.45;71.56;97158.80;102064;1317;61211;-24
2021/12/02 02:44:51;;;;;;;4.50;2.70;;;;;;;1.63;70.54;97151.52;102275;1313;75825;-23
2021/12/02 02:47:24;;;;;;;4.20;3.60;;;;;;;1.53;70.57;97141.98;102156;1316;76569;-23
2021/12/02 02:49:53;;;;;;;5.50;3.60;;;;;;;1.34;71.20;97139.95;102124;1320;74717;-23
2021/12/02 02:52:21;;;;;;;4.80;3.00;;;;;;;1.12;71.98;97138.62;102297;1313;61225;-24
2021/12/02 02:54:50;;;;;;;6.10;3.60;;;;;;;0.98;72.59;97135.88;102281;1314;60988;-23
2021/12/02 02:57:21;;;;;;;7.30;4.70;;;;;;;1.41;71.75;97129.70;102170;1314;74703;-23
2021/12/02 03:00:02;;;;;;;3.90;2.80;;;;;;;1.65;70.51;97129.96;102097;1319;75085;-24
2021/12/02 03:05:25;;;;;;;6.70;4.30;;;;;;;1.33;71.06;97113.05;102058;1313;61211;-24
2021/12/02 03:08:10;;;;;;;4.70;3.80;;;;;;;1.12;72.04;97119.05;102274;1314;61544;-23
2021/12/02 03:10:50;;;;;;;5.00;2.80;;;;;;;1.13;72.43;97122.22;102287;1313;72954;-23
2021/12/02 03:13:35;;;;;;;7.30;4.40;;;;;;;1.63;71.16;97114.90;101974;1317;75239;-24
2021/12/02 03:18:51;;;;;;;4.60;3.40;;;;;;;1.60;70.35;97110.16;102239;1316;61156;-24
2021/12/02 03:21:23;;;;;;;4.40;2.50;;;;;;;1.40;70.88;97111.65;102289;1313;61285;-24
2021/12/02 03:23:55;;;;;;;6.10;3.90;;;;;;;1.19;71.89;97104.98;101932;1316;75695;-23
2021/12/02 03:26:24;;;;;;;5.50;3.60;;;;;;;1.26;71.70;97103.79;102046;1317;76090;-24
2021/12/02 03:28:53;;;;;;;4.40;2.80;;;;;;;1.70;70.68;97103.48;101801;1317;73293;-25
2021/12/02 03:31:21;;;;;;;6.30;4.20;;;;;;;1.78;69.95;97100.58;102318;1312;61591;-23
2021/12/02 03:33:50;;;;;;;5.00;3.50;;;;;;;1.63;70.38;97099.65;102266;1314;61871;-24
2021/12/02 03:36:19;;;;;;;4.50;3.60;;;;;;;1.39;71.09;97102.65;101948;1316;73856;-23
2021/12/02 03:38:49;;;;;;;8.00;5.40;;;;;;;1.29;71.42;97106.64;101870;1320;74565;-24
2021/12/02 03:41:17;;;;;;;12.20;4.50;;;;;;;1.57;71.30;97102.20;102071;1320;72701;-23
2021/12/02 03:43:47;;;;;;;6.90;3.00;;;;;;;1.92;69.95;97103.60;102133;1314;61827;-24
2021/12/02 03:46:18;;;;;;;5.00;3.10;;;;;;;1.92;69.81;97104.81;102079;1314;61119;-24
2021/12/02 03:48:47;;;;;;;5.50;3.50;;;;;;;1.72;70.22;97099.19;101834;1317;75789;-23
2021/12/02 03:51:15;;;;;;;5.20;4.20;;;;;;;1.49;70.85;97095.59;101813;1314;76574;-23
2021/12/02 03:53:44;;;;;;;6.30;4.40;;;;;;;1.41;71.22;97089.17;102021;1313;72001;-23
2021/12/02 03:56:13;;;;;;;5.60;3.60;;;;;;;1.73;70.95;97095.50;101851;1316;61195;-24
2021/12/02 03:58:42;;;;;;;6.90;4.60;;;;;;;1.91;69.83;97095.34;102051;1314;61277;-23
2021/12/02 04:03:27;;;;;;;4.30;3.40;;;;;;;1.76;70.38;97099.73;98918;1351;599545;-21
2021/12/02 04:05:56;;;;;;;4.30;2.70;;;;;;;1.55;70.84;97103.72;101114;1325;61209;-25
2021/12/02 04:14:46;;;;;;;6.20;3.70;;;;;;;2.18;69.46;97105.54;101028;1326;76255;-26
2021/12/02 04:16:51;;;;;;;8.60;3.60;;;;;;;2.12;69.12;97105.00;100642;1322;222851;-23
2021/12/02 04:19:21;;;;;;;3.40;2.80;;;;;;;1.92;69.89;97094.40;101148;1322;61101;-24
2021/12/02 04:21:50;;;;;;;5.90;3.40;;;;;;;1.69;70.75;97096.52;101603;1316;62140;-23
2021/12/02 04:24:19;;;;;;;6.00;4.20;;;;;;;1.55;71.11;97086.41;101779;1316;73968;-24
2021/12/02 04:26:47;;;;;;;2.60;2.00;;;;;;;1.85;70.88;97086.37;101789;1315;75898;-27
2021/12/02 04:29:17;;;;;;;8.00;4.40;;;;;;;2.09;69.91;97088.30;101773;1319;73172;-28
2021/12/02 04:31:47;;;;;;;8.20;3.20;;;;;;;2.04;69.80;97091.95;101990;1316;61179;-25
2021/12/02 04:34:16;;;;;;;5.20;3.20;;;;;;;1.81;70.54;97087.89;101870;1322;61107;-25
2021/12/02 04:36:45;;;;;;;6.00;3.60;;;;;;;1.69;70.83;97081.79;101987;1316;74412;-23
2021/12/02 04:39:14;;;;;;;6.70;4.00;;;;;;;1.61;71.24;97079.29;101974;1316;76173;-23
2021/12/02 04:41:44;;;;;;;5.50;3.80;;;;;;;1.83;70.95;97083.92;101958;1316;72629;-23
2021/12/02 04:44:18;;;;;;;6.30;3.90;;;;;;;2.04;70.17;97079.98;101993;1315;61090;-24
2021/12/02 04:46:47;;;;;;;5.90;3.50;;;;;;;1.97;70.36;97080.70;101748;1316;61186;-24
2021/12/02 04:49:15;;;;;;;5.40;4.00;;;;;;;1.85;70.56;97076.58;101605;1316;74675;-24
2021/12/02 04:51:44;;;;;;;7.20;4.80;;;;;;;1.66;71.37;97074.34;101728;1315;76082;-23
2021/12/02 04:54:12;;;;;;;5.40;3.90;;;;;;;1.70;71.67;97077.45;101650;1319;72916;-23
2021/12/02 04:56:42;;;;;;;4.70;3.30;;;;;;;2.17;70.31;97076.58;101636;1317;61132;-24
2021/12/02 04:59:11;;;;;;;7.90;4.20;;;;;;;2.22;69.82;97074.41;101622;1316;61785;-24
2021/12/02 05:01:39;;;;;;;4.50;3.50;;;;;;;2.07;70.20;97073.38;101629;1316;74978;-24
2021/12/02 05:04:09;;;;;;;4.40;2.90;;;;;;;1.92;70.71;97069.12;101807;1316;74648;-24
2021/12/02 05:06:38;;;;;;;6.10;2.90;;;;;;;1.75;71.56;97077.74;101667;1316;72438;-23
2021/12/02 05:09:07;;;;;;;5.80;3.40;;;;;;;1.86;71.79;97079.63;101704;1319;62222;-24
2021/12/02 05:11:38;;;;;;;4.70;3.50;;;;;;;2.30;70.06;97077.42;101655;1315;61778;-24
2021/12/02 05:14:08;;;;;;;6.10;4.20;;;;;;;2.39;69.45;97074.29;101743;1319;74942;-24
2021/12/02 05:16:38;;;;;;;4.10;2.50;;;;;;;2.22;69.93;97080.29;101706;1316;75092;-24
2021/12/02 05:19:07;;;;;;;4.60;2.70;;;;;;;2.01;70.86;97081.05;101735;1316;73423;-24
2021/12/02 05:21:35;;;;;;;6.50;3.90;;;;;;;1.81;71.27;97072.46;101627;1315;61196;-24
2021/12/02 05:24:04;;;;;;;8.00;3.40;;;;;;;1.85;71.55;97073.89;101660;1315;61168;-24
2021/12/02 05:26:34;;;;;;;8.20;4.40;;;;;;;2.26;70.53;97069.71;101747;1319;74336;-24
2021/12/02 05:29:03;;;;;;;5.70;4.10;;;;;;;2.34;69.82;97077.14;101938;1315;76187;-24
2021/12/02 05:31:31;;;;;;;4.80;3.50;;;;;;;2.15;70.52;97073.60;101849;1320;72841;-24
2021/12/02 05:34:05;;;;;;;3.80;2.60;;;;;;;1.93;71.04;97070.52;101918;1317;61233;-24
2021/12/02 05:36:34;;;;;;;4.70;3.20;;;;;;;1.77;71.88;97073.49;102006;1315;61086;-23
2021/12/02 05:39:03;;;;;;;5.60;3.80;;;;;;;1.95;71.84;97069.36;101942;1316;74838;-24
2021/12/02 05:41:32;;;;;;;3.80;2.40;;;;;;;2.29;70.50;97072.36;101795;1316;73571;-24
2021/12/02 05:44:00;;;;;;;6.90;3.40;;;;;;;2.31;70.16;97068.48;102022;1315;74332;-23
2021/12/02 05:46:29;;;;;;;5.00;2.80;;;;;;;2.11;70.68;97075.97;101981;1317;61110;-24
2021/12/02 05:48:57;;;;;;;6.80;4.10;;;;;;;1.90;71.50;97072.69;102021;1315;61084;-23
2021/12/02 05:51:26;;;;;;;3.80;2.80;;;;;;;1.78;71.84;97075.48;102024;1315;74627;-23
2021/12/02 05:53:54;;;;;;;6.40;3.90;;;;;;;2.08;71.31;97074.37;101724;1316;76047;-24
2021/12/02 05:56:22;;;;;;;4.20;3.00;;;;;;;2.31;70.31;97072.36;101529;1317;74801;-23
2021/12/02 05:58:51;;;;;;;3.70;2.90;;;;;;;2.35;69.98;97072.39;101560;1316;61066;-24
2021/12/02 06:01:20;;;;;;;7.00;4.80;;;;;;;2.14;70.70;97074.56;101749;1316;61237;-24
2021/12/02 06:03:48;;;;;;;7.60;4.50;;;;;;;1.91;71.41;97071.68;101999;1317;74572;-24
2021/12/02 06:06:18;;;;;;;4.60;3.60;;;;;;;1.82;72.03;97074.26;101650;1316;75803;-24
2021/12/02 06:08:46;;;;;;;5.60;4.00;;;;;;;2.19;71.13;97076.02;101672;1316;73026;-23
2021/12/02 06:11:23;;;;;;;5.70;3.40;;;;;;;2.37;70.30;97081.02;101989;1316;61084;-24
2021/12/02 06:13:51;;;;;;;6.20;3.80;;;;;;;2.29;70.34;97083.69;101941;1315;61223;-24
2021/12/02 06:16:21;;;;;;;4.60;3.10;;;;;;;2.16;70.82;97082.78;101638;1315;74569;-24
2021/12/02 06:18:50;;;;;;;14.10;4.00;;;;;;;1.97;71.50;97080.55;101709;1316;76147;-24
2021/12/02 06:21:19;;;;;;;9.90;4.20;;;;;;;2.04;71.76;97082.37;101589;1316;73221;-23
2021/12/02 06:23:47;;;;;;;4.50;3.10;;;;;;;2.45;70.36;97079.83;101496;1320;61297;-24
2021/12/02 06:26:15;;;;;;;6.40;3.20;;;;;;;2.50;69.88;97077.71;101584;1316;61106;-24
2021/12/02 06:28:43;;;;;;;7.00;3.40;;;;;;;2.31;70.63;97076.98;102042;1316;74739;-23
2021/12/02 06:31:12;;;;;;;5.30;3.40;;;;;;;2.19;70.98;97079.10;102008;1316;76167;-24
2021/12/02 06:33:40;;;;;;;5.40;3.30;;;;;;;2.06;71.54;97084.77;101938;1316;74424;-23
2021/12/02 06:36:08;;;;;;;3.40;2.20;;;;;;;2.19;71.44;97086.02;101988;1315;61164;-24
2021/12/02 06:38:49;;;;;;;4.10;2.80;;;;;;;2.55;70.27;97090.20;101926;1316;61186;-23
2021/12/02 06:41:18;;;;;;;10.00;4.60;;;;;;;2.56;70.14;97087.73;101947;1316;73834;-24
2021/12/02 06:43:46;;;;;;;6.40;3.60;;;;;;;2.38;70.51;97090.83;102134;1318;75155;-23
2021/12/02 06:46:15;;;;;;;4.30;2.80;;;;;;;2.20;71.24;97090.16;102176;1312;74210;-24
2021/12/02 06:48:43;;;;;;;3.10;1.90;;;;;;;2.07;72.09;97095.80;102152;1312;61086;-23
2021/12/02 06:51:13;;;;;;;5.20;3.10;;;;;;;2.40;71.41;97094.63;102194;1316;62215;-23
2021/12/02 06:53:44;;;;;;;5.70;2.80;;;;;;;2.62;70.24;97100.61;102227;1319;74969;-23
2021/12/02 06:56:12;;;;;;;3.30;2.20;;;;;;;2.60;70.21;97105.55;102272;1319;76230;-24
2021/12/02 06:58:41;;;;;;;4.10;2.90;;;;;;;2.47;70.88;97111.36;102248;1316;73519;-24
2021/12/02 07:01:09;;;;;;;5.20;3.60;;;;;;;2.33;71.06;97109.60;102247;1316;62478;-24
2021/12/02 07:03:38;;;;;;;7.50;2.70;;;;;;;2.21;71.80;97105.81;102259;1317;61109;-24
2021/12/02 07:06:07;;;;;;;3.20;2.20;;;;;;;2.60;70.87;97101.98;102270;1317;75025;-23
2021/12/02 07:08:36;;;;;;;3.50;2.00;;;;;;;2.89;69.84;97105.85;102302;1316;75618;-24
2021/12/02 07:11:07;;;;;;;5.50;2.60;;;;;;;2.86;69.94;97107.62;102187;1319;74656;-23
2021/12/02 07:13:37;;;;;;;4.70;2.30;;;;;;;2.69;70.44;97112.00;102095;1313;61249;-23
2021/12/02 07:16:06;;;;;;;5.30;2.80;;;;;;;2.57;70.94;97116.40;102137;1319;61091;-24
2021/12/02 07:18:38;;;;;;;4.10;2.30;;;;;;;2.42;71.31;97117.58;102174;1316;74782;-24
2021/12/02 07:21:06;;;;;;;2.70;1.80;;;;;;;2.45;71.78;97122.70;102163;1312;74900;-24
2021/12/02 07:23:35;;;;;;;3.30;1.60;;;;;;;3.05;70.26;97131.45;102350;1319;75023;-23
2021/12/02 07:26:03;;;;;;;9.30;3.40;;;;;;;3.22;69.49;97134.16;102274;1312;61182;-23
2021/12/02 07:28:35;;;;;;;5.30;3.50;;;;;;;3.16;69.47;97131.25;102258;1318;61162;-24
2021/12/02 07:31:05;;;;;;;7.00;3.70;;;;;;;2.89;70.35;97137.74;102298;1316;74777;-24
2021/12/02 07:33:37;;;;;;;7.10;3.50;;;;;;;2.71;70.86;97140.48;102305;1316;76225;-24
2021/12/02 07:36:05;;;;;;;4.40;2.20;;;;;;;2.55;71.31;97137.33;102175;1314;74225;-23
2021/12/02 07:38:36;;;;;;;4.30;2.30;;;;;;;2.67;71.50;97141.34;102137;1319;61467;-23
2021/12/02 07:41:05;;;;;;;4.20;2.30;;;;;;;3.17;70.07;97148.29;101983;1312;62244;-24
2021/12/02 07:43:35;;;;;;;5.90;2.70;;;;;;;3.45;69.18;97148.14;102142;1313;74922;-24
2021/12/02 07:46:04;;;;;;;3.60;2.10;;;;;;;3.31;69.63;97149.04;102133;1316;76155;-23
2021/12/02 07:48:33;;;;;;;2.80;2.10;;;;;;;3.13;70.60;97152.23;101857;1316;73498;-23
2021/12/02 07:51:03;;;;;;;5.10;2.80;;;;;;;2.99;70.93;97155.56;101849;1316;61140;-23
2021/12/02 07:53:31;;;;;;;3.80;2.30;;;;;;;2.89;71.63;97157.57;101930;1319;61090;-23
2021/12/02 07:56:04;;;;;;;2.70;2.10;;;;;;;3.05;71.90;97159.89;102004;1317;74870;-23
2021/12/02 07:58:34;;;;;;;4.10;2.70;;;;;;;3.44;70.74;97165.36;102217;1318;76003;-23
2021/12/02 08:01:02;;;;;;;7.50;3.70;;;;;;;3.45;70.63;97168.19;102150;1313;74538;-23
2021/12/02 08:03:31;;;;;;;4.20;2.50;;;;;;;3.27;71.10;97168.66;102153;1317;61157;-23
2021/12/02 08:05:59;;;;;;;6.00;3.20;;;;;;;2.99;72.07;97169.30;102195;1319;61287;-25
2021/12/02 08:08:27;;;;;;;6.50;3.30;;;;;;;2.83;72.69;97171.79;102276;1317;73919;-24
2021/12/02 08:10:56;;;;;;;4.60;2.30;;;;;;;3.00;72.81;97169.17;102305;1312;74849;-24
2021/12/02 08:13:30;;;;;;;4.40;2.00;;;;;;;3.45;71.34;97170.61;102296;1319;73407;-24
2021/12/02 08:15:58;;;;;;;9.90;5.10;;;;;;;3.49;71.02;97173.70;102227;1317;61186;-23
2021/12/02 08:18:27;;;;;;;7.90;4.30;;;;;;;3.34;71.17;97172.13;102052;1313;61336;-23
2021/12/02 08:20:55;;;;;;;9.00;3.90;;;;;;;3.21;71.59;97169.07;102229;1317;74551;-23
2021/12/02 08:23:24;;;;;;;9.20;5.50;;;;;;;3.05;72.52;97163.14;102095;1319;75239;-24
2021/12/02 08:25:54;;;;;;;4.70;3.50;;;;;;;3.26;72.85;97159.98;102100;1317;73483;-23
2021/12/02 08:28:22;;;;;;;7.70;4.40;;;;;;;3.54;71.78;97156.80;101897;1318;62054;-24
2021/12/02 08:30:52;;;;;;;7.40;4.60;;;;;;;3.51;71.89;97163.23;102161;1317;61112;-24
2021/12/02 08:33:20;;;;;;;16.00;9.50;;;;;;;3.56;71.78;97167.96;102122;1317;75616;-24
2021/12/02 08:35:49;;;;;;;20.20;7.70;;;;;;;3.42;72.36;97162.23;102114;1313;75090;-24
2021/12/02 08:38:19;;;;;;;9.70;5.10;;;;;;;3.45;72.87;97164.73;102063;1318;73799;-24
2021/12/02 08:40:48;;;;;;;8.90;3.90;;;;;;;3.89;71.56;97170.02;102074;1316;61107;-23
2021/12/02 08:43:18;;;;;;;6.90;3.40;;;;;;;4.08;70.65;97168.62;102128;1317;62189;-24
2021/12/02 08:45:47;;;;;;;5.50;2.50;;;;;;;4.05;70.85;97177.67;102177;1316;74187;-23
2021/12/02 08:48:16;;;;;;;3.90;2.50;;;;;;;3.95;70.95;97175.87;102179;1313;76294;-23
2021/12/02 08:50:47;;;;;;;6.80;3.60;;;;;;;3.87;71.38;97165.71;102119;1314;74588;-23
2021/12/02 08:53:19;;;;;;;8.50;3.00;;;;;;;3.76;72.04;97156.77;102245;1319;61892;-23
2021/12/02 08:55:49;;;;;;;4.50;2.90;;;;;;;4.25;70.78;97151.44;102314;1319;61144;-22
2021/12/02 08:58:18;;;;;;;7.60;4.10;;;;;;;4.61;69.29;97154.81;102240;1317;75802;-23
2021/12/02 09:00:46;;;;;;;6.10;3.70;;;;;;;4.69;68.61;97156.77;102309;1313;75219;-22
2021/12/02 09:03:15;;;;;;;6.40;4.10;;;;;;;4.50;68.99;97157.70;102254;1319;74229;-23
2021/12/02 09:05:44;;;;;;;8.80;4.40;;;;;;;4.39;69.56;97154.16;102155;1319;61103;-22
2021/12/02 09:08:15;;;;;;;6.10;3.50;;;;;;;4.29;69.80;97149.36;102105;1318;61189;-23
2021/12/02 09:10:44;;;;;;;7.60;3.60;;;;;;;4.19;69.96;97145.27;102123;1319;75472;-23
2021/12/02 09:13:12;;;;;;;7.40;4.50;;;;;;;4.50;69.22;97151.84;102076;1316;75268;-23
2021/12/02 09:15:40;;;;;;;5.00;2.90;;;;;;;4.85;67.71;97153.96;102136;1317;74384;-22
2021/12/02 09:18:09;;;;;;;5.50;3.60;;;;;;;4.75;67.90;97155.88;102228;1316;61931;-22
2021/12/02 09:20:41;;;;;;;4.50;2.60;;;;;;;4.66;68.32;97151.82;102299;1316;62069;-23
2021/12/02 09:23:09;;;;;;;5.70;2.90;;;;;;;4.51;68.67;97148.65;102285;1319;72740;-23
2021/12/02 09:25:38;;;;;;;7.00;3.60;;;;;;;4.43;68.94;97145.73;102261;1316;75798;-23
2021/12/02 09:28:06;;;;;;;6.00;3.10;;;;;;;4.31;69.39;97145.06;102264;1317;73484;-23
2021/12/02 09:30:35;;;;;;;5.90;3.30;;;;;;;4.62;68.92;97154.39;102303;1319;61164;-23
2021/12/02 09:33:04;;;;;;;2.90;2.50;;;;;;;5.07;67.60;97152.93;102190;1319;61887;-22
2021/12/02 09:35:35;;;;;;;4.40;2.60;;;;;;;5.08;67.12;97148.55;102268;1316;75399;-23
2021/12/02 09:38:08;;;;;;;5.40;2.50;;;;;;;5.04;67.38;97143.58;102285;1319;75800;-23
2021/12/02 09:40:37;;;;;;;2.60;1.90;;;;;;;4.85;67.66;97140.91;102233;1319;74488;-22
2021/12/02 09:43:05;;;;;;;6.40;2.40;;;;;;;4.73;68.08;97141.76;102112;1317;61192;-23
2021/12/02 09:45:33;;;;;;;3.50;2.60;;;;;;;4.84;68.19;97139.43;102207;1319;61149;-22
2021/12/02 09:48:02;;;;;;;2.40;1.60;;;;;;;4.91;68.17;97133.71;102175;1318;75259;-22
2021/12/02 09:50:36;;;;;;;9.80;3.60;;;;;;;5.45;66.76;97133.45;102237;1319;74565;-23
2021/12/02 09:53:08;;;;;;;3.30;2.60;;;;;;;5.93;64.97;97127.61;102263;1319;74221;-23
2021/12/02 09:55:53;;;;;;;2.90;2.10;;;;;;;5.87;64.39;97129.02;102239;1319;61122;-22
2021/12/02 09:58:24;;;;;;;4.70;2.90;;;;;;;5.83;65.13;97126.26;102263;1317;61858;-22
2021/12/02 10:01:07;;;;;;;5.80;2.80;;;;;;;5.74;65.14;97130.89;102292;1319;75287;-23
2021/12/02 10:03:41;;;;;;;2.40;1.80;;;;;;;5.68;65.31;97131.59;102286;1313;75920;-22
2021/12/02 10:06:10;;;;;;;;;;;;;;;5.74;65.57;97126.95;102302;1319;73653;-22
2021/12/02 10:11:53;;;;;;;8.20;3.70;;;;;;;5.57;65.66;97116.46;102349;1319;61173;-23
2021/12/02 10:14:24;;;;;;;4.60;2.90;;;;;;;5.44;66.20;97115.85;102088;1314;73763;-23
2021/12/02 10:17:23;;;;;;;3.30;2.20;;;;;;;5.46;66.33;97111.06;102053;1318;75972;-23
2021/12/02 10:20:32;;;;;;;3.60;2.60;;;;;;;5.47;66.12;97121.46;102170;1319;73457;-23
2021/12/02 10:23:28;;;;;;;5.20;2.90;;;;;;;5.54;66.56;97119.66;102282;1317;61775;-22
2021/12/02 10:26:00;;;;;;;4.70;2.70;;;;;;;5.96;66.20;97129.55;102275;1316;62112;-22
2021/12/02 10:28:30;;;;;;;4.40;2.20;;;;;;;6.25;64.02;97123.42;102220;1319;74475;-23
2021/12/02 10:31:01;;;;;;;3.60;2.30;;;;;;;6.49;63.67;97125.56;102174;1319;75136;-22
2021/12/02 10:33:35;;;;;;;5.30;2.80;;;;;;;6.55;63.75;97120.81;102122;1313;74414;-23
2021/12/02 10:36:05;;;;;;;3.00;2.40;;;;;;;6.34;63.86;97126.90;102249;1314;61097;-23
2021/12/02 10:38:44;;;;;;;4.50;2.40;;;;;;;6.18;64.76;97128.67;102078;1314;61138;-23
2021/12/02 10:41:21;;;;;;;4.60;2.30;;;;;;;6.05;64.72;97124.48;101725;1319;74654;-23
2021/12/02 10:44:17;;;;;;;2.90;2.00;;;;;;;5.98;65.36;97122.36;102131;1313;75289;-22
2021/12/02 10:47:03;;;;;;;2.20;1.80;;;;;;;5.89;65.70;97124.06;101874;1319;73006;-23
2021/12/02 10:49:41;;;;;;;5.90;3.20;;;;;;;5.87;65.46;97121.45;101934;1314;61199;-23
2021/12/02 10:52:30;;;;;;;4.60;2.80;;;;;;;5.95;65.49;97113.84;102051;1312;61261;-22
2021/12/02 10:55:11;;;;;;;3.30;1.90;;;;;;;5.93;65.97;97112.30;101992;1317;74750;-22
2021/12/02 10:57:47;;;;;;;3.30;2.40;;;;;;;6.35;64.84;97106.00;102009;1314;73239;-24
2021/12/02 11:00:30;;;;;;;2.50;2.00;;;;;;;6.88;63.34;97102.19;101910;1314;74365;-23
2021/12/02 11:03:06;;;;;;;4.60;2.80;;;;;;;6.73;62.69;97100.15;102000;1314;61324;-24
2021/12/02 11:05:36;;;;;;;4.40;2.00;;;;;;;6.60;63.57;97098.61;101777;1317;61823;-23
2021/12/02 11:08:07;;;;;;;3.00;2.20;;;;;;;6.55;63.64;97099.50;102100;1317;76877;-23
2021/12/02 11:10:35;;;;;;;4.90;2.90;;;;;;;6.46;64.06;97092.18;101857;1314;76324;-23
2021/12/02 11:13:04;;;;;;;5.30;2.40;;;;;;;6.40;64.23;97096.84;102104;1314;74249;-24
2021/12/02 11:15:33;;;;;;;3.80;2.10;;;;;;;6.20;64.75;97097.94;102297;1312;61347;-25
2021/12/02 11:18:03;;;;;;;4.60;2.00;;;;;;;6.21;64.92;97099.59;102071;1319;61282;-24
2021/12/02 11:20:39;;;;;;;7.50;2.90;;;;;;;6.09;65.32;97102.40;101983;1313;74586;-23
2021/12/02 11:23:15;;;;;;;4.50;2.60;;;;;;;6.03;65.35;97096.02;102308;1313;75304;-24
2021/12/02 11:26:11;;;;;;;6.40;2.50;;;;;;;6.03;65.76;97095.58;102126;1314;73383;-24
2021/12/02 11:28:40;;;;;;;2.90;2.30;;;;;;;6.62;64.65;97096.88;102261;1314;61247;-24
2021/12/02 11:31:16;;;;;;;5.60;2.80;;;;;;;7.01;63.14;97100.41;102220;1312;61909;-23
2021/12/02 11:33:45;;;;;;;3.60;2.10;;;;;;;7.02;62.82;97100.48;102255;1314;73514;-23
2021/12/02 11:36:25;;;;;;;3.30;2.50;;;;;;;6.96;62.65;97101.24;102186;1317;75193;-23
2021/12/02 11:38:57;;;;;;;6.20;2.80;;;;;;;6.77;63.28;97100.09;102277;1313;74545;-24
2021/12/02 11:41:26;;;;;;;5.00;2.50;;;;;;;6.60;63.79;97098.48;102194;1313;61278;-23
2021/12/02 11:43:55;;;;;;;5.40;2.90;;;;;;;6.50;64.13;97094.62;101791;1317;61144;-23
2021/12/02 11:46:23;;;;;;;3.20;2.20;;;;;;;6.40;64.58;97095.23;101788;1313;72874;-23
2021/12/02 11:48:52;;;;;;;3.70;2.40;;;;;;;6.28;65.08;97094.23;102173;1316;76299;-24
2021/12/02 11:51:21;;;;;;;7.50;2.90;;;;;;;6.21;65.57;97100.92;102295;1316;75898;-23
2021/12/02 11:53:49;;;;;;;3.70;2.40;;;;;;;6.18;65.91;97095.84;102192;1314;61480;-23
2021/12/02 11:56:19;;;;;;;6.40;3.00;;;;;;;6.10;66.28;97093.36;102273;1312;61213;-23
2021/12/02 11:58:48;;;;;;;3.20;2.50;;;;;;;6.41;65.81;97093.65;102236;1313;75644;-23
2021/12/02 12:01:25;;;;;;;4.70;3.00;;;;;;;6.94;64.15;97096.19;102252;1312;75118;-23
2021/12/02 12:03:57;;;;;;;7.40;3.70;;;;;;;7.09;63.51;97104.60;101850;1313;74621;-23
2021/12/02 12:06:28;;;;;;;5.60;3.40;;;;;;;6.96;63.77;97103.77;101752;1315;61210;-22
2021/12/02 12:08:59;;;;;;;6.60;3.60;;;;;;;6.84;64.51;97107.87;102033;1313;61081;-23
2021/12/02 12:11:34;;;;;;;4.60;3.50;;;;;;;6.70;64.67;97104.40;101897;1313;74692;-23